createdAt,value
2022-11-26T00:01:24.247Z,2.47
2022-11-26T00:03:41.301Z,2.41
2022-11-26T00:05:59.685Z,2.38
2022-11-26T00:08:16.977Z,2.36
2022-11-26T00:10:39.918Z,2.35
2022-11-26T00:12:57.865Z,2.33
2022-11-26T00:15:15.212Z,2.36
2022-11-26T00:17:32.315Z,2.37
2022-11-26T00:19:49.595Z,2.32
2022-11-26T00:22:09.787Z,2.27
2022-11-26T00:24:27.833Z,2.23
2022-11-26T00:26:46.041Z,2.17
2022-11-26T00:29:03.164Z,2.16
2022-11-26T00:31:20.224Z,2.15
2022-11-26T00:33:37.498Z,2.15
2022-11-26T00:35:54.458Z,2.16
2022-11-26T00:38:11.765Z,2.16
2022-11-26T00:40:29.026Z,2.09
2022-11-26T00:42:46.129Z,2.04
2022-11-26T00:45:03.590Z,2.01
2022-11-26T00:47:20.489Z,1.97
2022-11-26T00:49:37.552Z,1.98
2022-11-26T00:51:54.547Z,1.96
2022-11-26T00:54:11.413Z,1.92
2022-11-26T00:56:28.356Z,1.91
2022-11-26T00:58:45.249Z,1.95
2022-11-26T01:01:02.408Z,1.96
2022-11-26T01:03:19.629Z,1.99
2022-11-26T01:05:36.620Z,1.98
2022-11-26T01:07:53.908Z,2.06
2022-11-26T01:10:10.977Z,2.09
2022-11-26T01:12:27.947Z,2.06
2022-11-26T01:14:45.217Z,2.03
2022-11-26T01:17:02.634Z,2.05
2022-11-26T01:19:19.706Z,2.05
2022-11-26T01:21:38.242Z,2.12
2022-11-26T01:23:55.503Z,2.12
2022-11-26T01:26:12.795Z,2.11
2022-11-26T01:28:30.650Z,2.13
2022-11-26T01:30:48.711Z,2.17
2022-11-26T01:33:05.704Z,2.14
2022-11-26T01:35:25.387Z,2.11
2022-11-26T01:37:42.382Z,2.11
2022-11-26T01:40:01.848Z,2.11
2022-11-26T01:42:18.786Z,2.03
2022-11-26T01:44:36.713Z,2.00
2022-11-26T01:46:53.967Z,1.99
2022-11-26T01:49:19.499Z,1.97
2022-11-26T01:51:36.830Z,1.96
2022-11-26T01:53:53.744Z,2.00
2022-11-26T01:56:11.083Z,1.98
2022-11-26T01:58:28.464Z,1.86
2022-11-26T02:00:45.790Z,1.78
2022-11-26T02:03:02.878Z,1.72
2022-11-26T02:05:20.115Z,1.67
2022-11-26T02:07:37.359Z,1.65
2022-11-26T02:09:58.112Z,1.62
2022-11-26T02:12:15.151Z,1.62
2022-11-26T02:14:31.977Z,1.61
2022-11-26T02:16:48.970Z,1.57
2022-11-26T02:19:06.281Z,1.52
2022-11-26T02:21:23.553Z,1.50
2022-11-26T02:23:41.504Z,1.48
2022-11-26T02:25:58.477Z,1.48
2022-11-26T02:28:15.455Z,1.50
2022-11-26T02:30:32.442Z,1.48
2022-11-26T02:32:49.481Z,1.48
2022-11-26T02:35:06.729Z,1.47
2022-11-26T02:37:23.981Z,1.45
2022-11-26T02:39:41.209Z,1.43
2022-11-26T02:41:58.490Z,1.41
2022-11-26T02:44:15.729Z,1.38
2022-11-26T02:46:34.027Z,1.40
2022-11-26T02:48:51.013Z,1.41
2022-11-26T02:51:08.254Z,1.40
2022-11-26T02:53:26.277Z,1.42
2022-11-26T02:55:43.543Z,1.45
2022-11-26T02:58:00.438Z,1.39
2022-11-26T03:00:18.425Z,1.36
2022-11-26T03:02:35.656Z,1.35
2022-11-26T03:04:52.554Z,1.36
2022-11-26T03:07:09.597Z,1.37
2022-11-26T03:09:27.160Z,1.37
2022-11-26T03:11:45.081Z,1.33
2022-11-26T03:14:02.309Z,1.36
2022-11-26T03:16:19.617Z,1.45
2022-11-26T03:18:36.604Z,1.41
2022-11-26T03:20:53.885Z,1.42
2022-11-26T03:23:11.824Z,1.42
2022-11-26T03:25:28.834Z,1.44
2022-11-26T03:27:46.798Z,1.47
2022-11-26T03:30:04.117Z,1.50
2022-11-26T03:32:21.396Z,1.54
2022-11-26T03:34:38.569Z,1.57
2022-11-26T03:36:56.913Z,1.61
2022-11-26T03:39:14.086Z,1.69
2022-11-26T03:41:31.439Z,1.71
2022-11-26T03:43:49.707Z,1.65
2022-11-26T03:46:07.017Z,1.59
2022-11-26T03:48:24.262Z,1.56
2022-11-26T03:50:41.312Z,1.56
2022-11-26T03:52:59.228Z,1.56
2022-11-26T03:55:16.503Z,1.60
2022-11-26T03:57:33.472Z,1.61
2022-11-26T03:59:50.524Z,1.62
2022-11-26T04:02:07.490Z,1.64
2022-11-26T04:04:25.538Z,1.71
2022-11-26T04:06:42.734Z,1.67
2022-11-26T04:09:01.033Z,1.62
2022-11-26T04:11:18.007Z,1.64
2022-11-26T04:13:35.247Z,1.65
2022-11-26T04:15:52.548Z,1.63
2022-11-26T04:18:09.776Z,1.64
2022-11-26T04:20:27.392Z,1.65
2022-11-26T04:22:44.416Z,1.60
2022-11-26T04:25:01.954Z,1.64
2022-11-26T04:27:18.916Z,1.62
2022-11-26T04:29:37.149Z,1.64
2022-11-26T04:31:54.436Z,1.59
2022-11-26T04:34:12.704Z,1.57
2022-11-26T04:36:29.708Z,1.60
2022-11-26T04:38:47.987Z,1.62
2022-11-26T04:41:07.474Z,1.64
2022-11-26T04:43:24.922Z,1.62
2022-11-26T04:45:41.973Z,1.66
2022-11-26T04:47:58.912Z,1.65
2022-11-26T04:50:16.091Z,1.61
2022-11-26T04:52:33.113Z,1.60
2022-11-26T04:54:50.661Z,1.58
2022-11-26T04:57:08.896Z,1.60
2022-11-26T04:59:26.147Z,1.64
2022-11-26T05:01:43.302Z,1.68
2022-11-26T05:04:00.608Z,1.64
2022-11-26T05:06:17.474Z,1.59
2022-11-26T05:08:34.782Z,1.58
2022-11-26T05:10:51.688Z,1.55
2022-11-26T05:13:09.900Z,1.52
2022-11-26T05:15:27.133Z,1.53
2022-11-26T05:17:44.204Z,1.49
2022-11-26T05:20:01.461Z,1.51
2022-11-26T05:22:18.795Z,1.53
2022-11-26T05:24:35.921Z,1.57
2022-11-26T05:26:56.875Z,1.58
2022-11-26T05:29:14.255Z,1.53
2022-11-26T05:31:31.612Z,1.54
2022-11-26T05:33:48.795Z,1.52
2022-11-26T05:36:07.138Z,1.52
2022-11-26T05:38:24.409Z,1.52
2022-11-26T05:40:41.670Z,1.47
2022-11-26T05:42:58.985Z,1.50
2022-11-26T05:45:16.310Z,1.53
2022-11-26T05:47:33.170Z,1.51
2022-11-26T05:49:50.722Z,1.49
2022-11-26T05:52:08.040Z,1.50
2022-11-26T05:54:25.041Z,1.54
2022-11-26T05:56:42.081Z,1.57
2022-11-26T05:58:59.061Z,1.56
2022-11-26T06:01:16.348Z,1.53
2022-11-26T06:03:33.238Z,1.55
2022-11-26T06:05:50.245Z,1.60
2022-11-26T06:08:08.512Z,1.64
2022-11-26T06:10:25.814Z,1.60
2022-11-26T06:12:42.778Z,1.58
2022-11-26T06:15:00.073Z,1.55
2022-11-26T06:17:16.961Z,1.55
2022-11-26T06:19:34.257Z,1.52
2022-11-26T06:21:51.546Z,1.52
2022-11-26T06:24:08.990Z,1.54
2022-11-26T06:26:26.022Z,1.61
2022-11-26T06:28:43.097Z,1.54
2022-11-26T06:31:00.358Z,1.48
2022-11-26T06:33:17.704Z,1.48
2022-11-26T06:35:34.722Z,1.51
2022-11-26T06:37:51.969Z,1.50
2022-11-26T06:40:09.331Z,1.57
2022-11-26T06:42:26.555Z,1.52
2022-11-26T06:44:44.147Z,1.53
2022-11-26T06:47:01.348Z,1.54
2022-11-26T06:49:18.836Z,1.58
2022-11-26T06:51:35.899Z,1.61
2022-11-26T06:53:52.926Z,1.56
2022-11-26T06:56:14.807Z,1.58
2022-11-26T06:58:35.826Z,1.56
2022-11-26T07:00:52.862Z,1.54
2022-11-26T07:03:10.039Z,1.49
2022-11-26T07:05:27.444Z,1.47
2022-11-26T07:07:44.526Z,1.47
2022-11-26T07:10:01.753Z,1.48
2022-11-26T07:12:19.037Z,1.47
2022-11-26T07:14:37.261Z,1.45
2022-11-26T07:16:54.830Z,1.51
2022-11-26T07:19:12.122Z,1.49
2022-11-26T07:21:29.093Z,1.57
2022-11-26T07:23:46.164Z,1.56
2022-11-26T07:26:04.174Z,1.64
2022-11-26T07:28:21.261Z,1.61
2022-11-26T07:30:38.609Z,1.53
2022-11-26T07:32:56.878Z,1.50
2022-11-26T07:35:13.824Z,1.51
2022-11-26T07:37:32.112Z,1.55
2022-11-26T07:39:49.447Z,1.53
2022-11-26T07:42:06.497Z,1.53
2022-11-26T07:44:24.749Z,1.56
2022-11-26T07:46:41.785Z,1.55
2022-11-26T07:48:58.796Z,1.52
2022-11-26T07:51:15.882Z,1.49
2022-11-26T07:53:32.751Z,1.54
2022-11-26T07:55:49.683Z,1.58
2022-11-26T07:58:06.624Z,1.67
2022-11-26T08:00:23.956Z,1.69
2022-11-26T08:02:41.066Z,1.66
2022-11-26T08:04:59.173Z,1.69
2022-11-26T08:07:24.323Z,1.70
2022-11-26T08:09:44.886Z,1.72
2022-11-26T08:12:02.148Z,1.70
2022-11-26T08:14:19.350Z,1.77
2022-11-26T08:16:36.389Z,1.85
2022-11-26T08:18:53.339Z,1.91
2022-11-26T08:21:10.622Z,1.97
2022-11-26T08:23:27.513Z,2.01
2022-11-26T08:26:06.106Z,2.02
2022-11-26T08:28:21.616Z,2.02
2022-11-26T08:30:38.602Z,2.07
2022-11-26T08:32:55.922Z,2.10
2022-11-26T08:35:12.969Z,2.15
2022-11-26T08:37:30.754Z,2.26
2022-11-26T08:39:47.657Z,2.37
2022-11-26T08:42:04.900Z,2.41
2022-11-26T08:44:22.125Z,2.35
2022-11-26T08:46:39.464Z,2.40
2022-11-26T08:48:56.949Z,2.49
2022-11-26T08:51:13.986Z,2.48
2022-11-26T08:53:31.265Z,2.60
2022-11-26T08:56:00.015Z,2.68
2022-11-26T08:58:17.638Z,2.64
2022-11-26T09:00:34.683Z,2.72
2022-11-26T09:02:52.052Z,2.73
2022-11-26T09:05:09.340Z,2.75
2022-11-26T09:07:26.359Z,2.80
2022-11-26T09:09:43.696Z,2.88
2022-11-26T09:12:02.021Z,2.97
2022-11-26T09:14:19.903Z,2.97
2022-11-26T09:16:37.249Z,3.00
2022-11-26T09:18:54.545Z,3.04
2022-11-26T09:21:11.469Z,3.11
2022-11-26T09:23:28.601Z,3.24
2022-11-26T09:25:45.660Z,3.34
2022-11-26T09:28:03.327Z,3.48
2022-11-26T09:30:20.347Z,3.48
2022-11-26T09:32:37.637Z,3.58
2022-11-26T09:34:54.839Z,3.61
2022-11-26T09:37:12.955Z,3.63
2022-11-26T09:39:30.923Z,3.69
2022-11-26T09:41:49.020Z,3.78
2022-11-26T09:44:06.250Z,3.87
2022-11-26T09:46:23.258Z,3.94
2022-11-26T09:48:40.196Z,3.97
2022-11-26T09:50:57.360Z,4.02
2022-11-26T09:53:14.384Z,4.09
2022-11-26T09:55:31.346Z,4.14
2022-11-26T09:57:48.470Z,4.11
2022-11-26T10:00:05.712Z,4.10
2022-11-26T10:02:23.193Z,4.13
2022-11-26T10:04:41.377Z,4.25
2022-11-26T10:06:58.786Z,4.32
2022-11-26T10:09:15.722Z,4.32
2022-11-26T10:11:32.798Z,4.34
2022-11-26T10:13:49.778Z,4.36
2022-11-26T10:16:06.835Z,4.38
2022-11-26T10:18:25.226Z,4.49
2022-11-26T10:20:42.486Z,4.52
2022-11-26T10:22:59.456Z,4.57
2022-11-26T10:25:16.722Z,4.65
2022-11-26T10:27:33.908Z,4.68
2022-11-26T10:29:50.935Z,4.72
2022-11-26T10:32:08.203Z,4.75
2022-11-26T10:34:28.924Z,4.81
2022-11-26T10:36:49.125Z,4.88
2022-11-26T10:39:06.080Z,4.97
2022-11-26T10:41:24.057Z,5.01
2022-11-26T10:43:41.383Z,5.08
2022-11-26T10:45:58.389Z,5.23
2022-11-26T10:48:16.637Z,5.24
2022-11-26T10:50:47.569Z,5.28
2022-11-26T10:53:04.990Z,5.31
2022-11-26T10:55:22.070Z,5.37
2022-11-26T10:57:39.133Z,5.49
2022-11-26T10:59:56.332Z,5.53
2022-11-26T11:02:13.460Z,5.56
2022-11-26T11:04:30.444Z,5.57
2022-11-26T11:06:47.699Z,5.62
2022-11-26T11:09:05.991Z,5.65
2022-11-26T11:11:22.915Z,5.73
2022-11-26T11:13:40.373Z,5.78
2022-11-26T11:15:57.740Z,5.84
2022-11-26T11:18:14.820Z,5.89
2022-11-26T11:20:31.751Z,5.98
2022-11-26T11:22:51.869Z,5.99
2022-11-26T11:25:11.034Z,6.01
2022-11-26T11:27:28.310Z,6.07
2022-11-26T11:29:45.604Z,6.26
2022-11-26T11:32:02.917Z,6.25
2022-11-26T11:34:20.177Z,6.26
2022-11-26T11:36:38.117Z,6.30
2022-11-26T11:38:55.364Z,6.29
2022-11-26T11:41:13.031Z,6.30
2022-11-26T11:43:30.565Z,6.34
2022-11-26T11:45:52.882Z,6.41
2022-11-26T11:48:10.393Z,6.46
2022-11-26T11:50:28.357Z,6.53
2022-11-26T11:52:45.395Z,6.56
2022-11-26T11:55:02.273Z,6.61
2022-11-26T11:57:19.159Z,6.65
2022-11-26T11:59:36.251Z,6.70
2022-11-26T12:01:53.298Z,6.74
2022-11-26T12:04:16.414Z,6.76
2022-11-26T12:06:36.389Z,6.79
2022-11-26T12:08:54.275Z,6.82
2022-11-26T12:11:11.359Z,6.85
2022-11-26T12:13:29.289Z,6.90
2022-11-26T12:15:47.476Z,6.91
2022-11-26T12:18:04.400Z,6.93
2022-11-26T12:20:21.664Z,6.98
2022-11-26T12:22:38.638Z,6.96
2022-11-26T12:24:55.569Z,6.97
2022-11-26T12:27:13.504Z,7.00
2022-11-26T12:29:31.647Z,7.05
2022-11-26T12:31:48.654Z,7.07
2022-11-26T12:34:08.724Z,7.08
2022-11-26T12:36:26.987Z,7.09
2022-11-26T12:38:44.094Z,7.10
2022-11-26T12:41:01.141Z,7.11
2022-11-26T12:43:18.482Z,7.14
2022-11-26T12:45:35.733Z,7.15
2022-11-26T12:47:52.739Z,7.17
2022-11-26T12:50:09.991Z,7.19
2022-11-26T12:52:27.261Z,7.24
2022-11-26T12:54:45.135Z,7.26
2022-11-26T12:57:02.487Z,7.28
2022-11-26T12:59:19.373Z,7.29
2022-11-26T13:01:36.724Z,7.30
2022-11-26T13:04:14.465Z,7.31
2022-11-26T13:06:30.983Z,7.32
2022-11-26T13:08:48.204Z,7.35
2022-11-26T13:11:08.819Z,7.31
2022-11-26T13:13:27.262Z,7.30
2022-11-26T13:15:44.357Z,7.32
2022-11-26T13:18:01.644Z,7.31
2022-11-26T13:20:18.790Z,7.35
2022-11-26T13:22:35.792Z,7.36
2022-11-26T13:24:52.725Z,7.37
2022-11-26T13:27:11.004Z,7.38
2022-11-26T13:29:28.299Z,7.37
2022-11-26T13:31:45.729Z,7.39
2022-11-26T13:34:02.800Z,7.46
2022-11-26T13:36:20.112Z,7.52
2022-11-26T13:38:37.244Z,7.47
2022-11-26T13:40:58.585Z,7.46
2022-11-26T13:43:16.044Z,7.46
2022-11-26T13:45:33.025Z,7.42
2022-11-26T13:47:51.033Z,7.40
2022-11-26T13:50:08.232Z,7.42
2022-11-26T13:52:25.164Z,7.37
2022-11-26T13:54:42.668Z,7.37
2022-11-26T13:57:00.136Z,7.45
2022-11-26T13:59:17.462Z,7.46
2022-11-26T14:01:34.600Z,7.41
2022-11-26T14:03:51.617Z,7.40
2022-11-26T14:06:08.621Z,7.42
2022-11-26T14:08:25.813Z,7.45
2022-11-26T14:10:42.763Z,7.46
2022-11-26T14:12:59.724Z,7.48
2022-11-26T14:15:17.047Z,7.45
2022-11-26T14:17:35.358Z,7.46
2022-11-26T14:19:52.448Z,7.44
2022-11-26T14:22:10.729Z,7.44
2022-11-26T14:24:28.997Z,7.46
2022-11-26T14:26:46.320Z,7.45
2022-11-26T14:29:06.140Z,7.42
2022-11-26T14:31:25.907Z,7.42
2022-11-26T14:33:43.807Z,7.42
2022-11-26T14:36:00.690Z,7.46
2022-11-26T14:38:17.919Z,7.44
2022-11-26T14:40:34.889Z,7.44
2022-11-26T14:42:53.264Z,7.42
2022-11-26T14:45:11.603Z,7.42
2022-11-26T14:47:29.862Z,7.41
2022-11-26T14:49:47.107Z,7.40
2022-11-26T14:52:04.354Z,7.40
2022-11-26T14:54:21.619Z,7.40
2022-11-26T14:56:38.569Z,7.38
2022-11-26T14:58:55.632Z,7.39
2022-11-26T15:01:12.929Z,7.37
2022-11-26T15:03:29.991Z,7.36
2022-11-26T15:05:47.772Z,7.38
2022-11-26T15:08:04.989Z,7.33
2022-11-26T15:10:22.282Z,7.31
2022-11-26T15:12:39.529Z,7.27
2022-11-26T15:14:56.585Z,7.23
2022-11-26T15:17:13.696Z,7.19
2022-11-26T15:19:30.664Z,7.14
2022-11-26T15:21:49.771Z,7.11
2022-11-26T15:24:07.037Z,7.08
2022-11-26T15:26:24.069Z,7.05
2022-11-26T15:28:41.309Z,7.04
2022-11-26T15:30:58.360Z,7.01
2022-11-26T15:33:15.794Z,6.97
2022-11-26T15:35:33.027Z,6.95
2022-11-26T15:37:51.191Z,6.90
2022-11-26T15:40:09.504Z,6.87
2022-11-26T15:42:26.549Z,6.82
2022-11-26T15:44:43.784Z,6.79
2022-11-26T15:47:01.259Z,6.77
2022-11-26T15:49:18.235Z,6.73
2022-11-26T15:51:36.233Z,6.71
2022-11-26T15:53:53.391Z,6.68
2022-11-26T15:56:10.746Z,6.65
2022-11-26T15:58:27.753Z,6.64
2022-11-26T16:00:44.820Z,6.63
2022-11-26T16:03:03.969Z,6.61
2022-11-26T16:05:20.881Z,6.60
2022-11-26T16:07:38.947Z,6.58
2022-11-26T16:09:56.017Z,6.55
2022-11-26T16:12:13.248Z,6.52
2022-11-26T16:14:30.514Z,6.50
2022-11-26T16:16:48.412Z,6.48
2022-11-26T16:19:06.677Z,6.51
2022-11-26T16:21:23.522Z,6.49
2022-11-26T16:23:40.543Z,6.46
2022-11-26T16:25:57.861Z,6.46
2022-11-26T16:28:14.805Z,6.44
2022-11-26T16:30:31.859Z,6.41
2022-11-26T16:32:48.838Z,6.40
2022-11-26T16:35:29.836Z,6.40
2022-11-26T16:37:42.983Z,6.39
2022-11-26T16:40:00.060Z,6.38
2022-11-26T16:42:16.982Z,6.37
2022-11-26T16:44:34.002Z,6.36
2022-11-26T16:46:50.955Z,6.36
2022-11-26T16:49:07.866Z,6.35
2022-11-26T16:51:24.914Z,6.35
2022-11-26T16:53:42.225Z,6.37
2022-11-26T16:56:00.173Z,6.41
2022-11-26T16:58:17.585Z,6.42
2022-11-26T17:00:34.856Z,6.38
2022-11-26T17:02:52.214Z,6.37
2022-11-26T17:05:09.355Z,6.35
2022-11-26T17:07:26.457Z,6.34
2022-11-26T17:09:44.658Z,6.32
2022-11-26T17:12:01.717Z,6.31
2022-11-26T17:14:19.024Z,6.30
2022-11-26T17:16:36.371Z,6.31
2022-11-26T17:18:53.433Z,6.32
2022-11-26T17:21:10.467Z,6.35
2022-11-26T17:23:27.506Z,6.32
2022-11-26T17:25:44.529Z,6.29
2022-11-26T17:28:01.853Z,6.28
2022-11-26T17:30:19.007Z,6.28
2022-11-26T17:32:36.326Z,6.27
2022-11-26T17:34:53.274Z,6.27
2022-11-26T17:37:10.486Z,6.25
2022-11-26T17:39:27.469Z,6.26
2022-11-26T17:41:44.460Z,6.24
2022-11-26T17:44:01.890Z,6.23
2022-11-26T17:46:19.340Z,6.20
2022-11-26T17:48:36.596Z,6.20
2022-11-26T17:50:53.891Z,6.20
2022-11-26T17:53:11.088Z,6.19
2022-11-26T17:55:28.473Z,6.17
2022-11-26T17:57:46.598Z,6.19
2022-11-26T18:00:03.951Z,6.17
2022-11-26T18:02:22.333Z,6.17
2022-11-26T18:04:39.651Z,6.17
2022-11-26T18:06:56.956Z,6.16
2022-11-26T18:09:14.019Z,6.15
2022-11-26T18:11:31.357Z,6.14
2022-11-26T18:13:49.699Z,6.14
2022-11-26T18:16:06.705Z,6.15
2022-11-26T18:18:24.021Z,6.14
2022-11-26T18:20:41.325Z,6.15
2022-11-26T18:22:59.360Z,6.10
2022-11-26T18:25:17.381Z,6.10
2022-11-26T18:27:34.307Z,6.08
2022-11-26T18:29:54.007Z,6.09
2022-11-26T18:32:11.209Z,6.07
2022-11-26T18:34:28.494Z,6.06
2022-11-26T18:36:50.686Z,6.08
2022-11-26T18:39:10.538Z,6.06
2022-11-26T18:41:27.456Z,6.05
2022-11-26T18:43:44.735Z,6.06
2022-11-26T18:46:02.362Z,6.05
2022-11-26T18:48:19.404Z,6.05
2022-11-26T18:50:37.646Z,6.05
2022-11-26T18:52:54.777Z,6.04
2022-11-26T18:55:14.379Z,6.03
2022-11-26T18:57:32.821Z,6.05
2022-11-26T18:59:49.899Z,6.04
2022-11-26T19:02:07.371Z,6.04
2022-11-26T19:04:24.290Z,6.04
2022-11-26T19:06:42.537Z,6.04
2022-11-26T19:08:59.578Z,6.06
2022-11-26T19:11:16.921Z,6.07
2022-11-26T19:13:34.118Z,6.07
2022-11-26T19:15:51.513Z,6.08
2022-11-26T19:18:08.605Z,6.07
2022-11-26T19:20:25.683Z,6.04
2022-11-26T19:22:42.999Z,6.06
2022-11-26T19:25:00.296Z,6.06
2022-11-26T19:27:17.576Z,6.04
2022-11-26T19:29:34.887Z,6.04
2022-11-26T19:31:53.346Z,6.08
2022-11-26T19:34:11.756Z,6.07
2022-11-26T19:36:28.853Z,6.05
2022-11-26T19:38:45.742Z,6.06
2022-11-26T19:41:02.907Z,6.04
2022-11-26T19:43:20.813Z,6.03
2022-11-26T19:45:38.208Z,6.05
2022-11-26T19:47:55.515Z,6.04
2022-11-26T19:50:12.813Z,6.02
2022-11-26T19:52:31.257Z,6.02
2022-11-26T19:54:49.356Z,6.02
2022-11-26T19:57:06.386Z,6.00
2022-11-26T19:59:23.352Z,6.01
2022-11-26T20:01:40.667Z,6.02
2022-11-26T20:03:58.038Z,6.01
2022-11-26T20:06:17.283Z,6.03
2022-11-26T20:08:34.570Z,6.04
2022-11-26T20:10:51.783Z,6.01
2022-11-26T20:13:09.038Z,5.99
2022-11-26T20:15:26.321Z,6.00
2022-11-26T20:17:51.302Z,6.00
2022-11-26T20:20:08.304Z,6.03
2022-11-26T20:22:28.083Z,6.03
2022-11-26T20:24:45.226Z,6.02
2022-11-26T20:27:02.485Z,6.00
2022-11-26T20:29:19.448Z,5.98
2022-11-26T20:31:36.401Z,5.95
2022-11-26T20:33:54.593Z,5.93
2022-11-26T20:36:11.904Z,5.90
2022-11-26T20:38:28.944Z,5.90
2022-11-26T20:40:45.900Z,5.89
2022-11-26T20:43:04.371Z,5.89
2022-11-26T20:45:21.357Z,5.90
2022-11-26T20:47:38.553Z,5.90
2022-11-26T20:49:55.698Z,5.87
2022-11-26T20:52:12.803Z,5.83
2022-11-26T20:54:30.165Z,5.84
2022-11-26T20:56:47.434Z,5.85
2022-11-26T20:59:04.375Z,5.85
2022-11-26T21:01:21.430Z,5.83
2022-11-26T21:03:38.861Z,5.83
2022-11-26T21:05:56.108Z,5.82
2022-11-26T21:08:13.403Z,5.80
2022-11-26T21:10:30.649Z,5.76
2022-11-26T21:12:47.838Z,5.75
2022-11-26T21:15:06.149Z,5.76
2022-11-26T21:17:23.318Z,5.76
2022-11-26T21:19:40.871Z,5.73
2022-11-26T21:21:58.291Z,5.76
2022-11-26T21:24:15.326Z,5.77
2022-11-26T21:26:32.638Z,5.79
2022-11-26T21:28:50.615Z,5.79
2022-11-26T21:31:09.026Z,5.78
2022-11-26T21:33:26.397Z,5.77
2022-11-26T21:35:43.416Z,5.76
2022-11-26T21:38:00.693Z,5.78
2022-11-26T21:40:18.687Z,5.80
2022-11-26T21:42:35.949Z,5.80
2022-11-26T21:44:52.896Z,5.79
2022-11-26T21:47:09.821Z,5.73
2022-11-26T21:49:26.922Z,5.76
2022-11-26T21:51:44.215Z,5.78
2022-11-26T21:54:01.205Z,5.76
2022-11-26T21:56:18.509Z,5.77
2022-11-26T21:58:35.883Z,5.77
2022-11-26T22:00:53.148Z,5.77
2022-11-26T22:03:11.701Z,5.77
2022-11-26T22:05:28.974Z,5.77
2022-11-26T22:07:46.637Z,5.78
2022-11-26T22:10:04.330Z,5.77
2022-11-26T22:12:21.699Z,5.76
2022-11-26T22:14:38.604Z,5.77
2022-11-26T22:16:56.587Z,5.78
2022-11-26T22:19:13.667Z,5.78
2022-11-26T22:21:31.738Z,5.77
2022-11-26T22:23:48.712Z,5.78
2022-11-26T22:26:05.999Z,5.79
2022-11-26T22:28:28.475Z,5.77
2022-11-26T22:30:47.248Z,5.78
2022-11-26T22:33:04.129Z,5.80
2022-11-26T22:35:21.460Z,5.80
2022-11-26T22:37:38.514Z,5.83
2022-11-26T22:39:55.727Z,5.83
2022-11-26T22:42:12.858Z,5.83
2022-11-26T22:44:29.960Z,5.85
2022-11-26T22:46:47.008Z,5.82
2022-11-26T22:49:04.418Z,5.81
2022-11-26T22:51:21.439Z,5.81
2022-11-26T22:53:38.521Z,5.81
2022-11-26T22:55:56.554Z,5.82
2022-11-26T22:58:14.657Z,5.82
2022-11-26T23:00:31.670Z,5.82
2022-11-26T23:02:49.002Z,5.79
2022-11-26T23:05:06.257Z,5.78
2022-11-26T23:07:25.814Z,5.75
2022-11-26T23:09:46.725Z,5.78
2022-11-26T23:12:05.191Z,5.77
2022-11-26T23:14:22.179Z,5.74
2022-11-26T23:16:39.688Z,5.75
2022-11-26T23:18:56.827Z,5.74
2022-11-26T23:21:13.852Z,5.73
2022-11-26T23:23:30.861Z,5.73
2022-11-26T23:25:47.947Z,5.70
2022-11-26T23:28:04.957Z,5.72
2022-11-26T23:30:21.968Z,5.67
2022-11-26T23:32:39.065Z,5.68
2022-11-26T23:34:56.157Z,5.69
2022-11-26T23:37:13.144Z,5.67
2022-11-26T23:39:31.063Z,5.71
2022-11-26T23:41:48.188Z,5.69
2022-11-26T23:44:06.552Z,5.67
2022-11-26T23:46:23.521Z,5.67
2022-11-26T23:48:40.730Z,5.70
2022-11-26T23:50:58.037Z,5.67
2022-11-26T23:53:16.134Z,5.66
2022-11-26T23:55:33.389Z,5.65
2022-11-26T23:57:50.862Z,5.67
